This is the latest recevied weather packets stored in our database for station/object LU1HKO-13. If no packets are shown the sender has not sent any weather packets the latest 10 day(s).
| Time | Temp. | Humidity | Pressure | Rain* | Wind** | Luminosity | Snow |
|---|---|---|---|---|---|---|---|
| 1778111760 | 23.89° C | 66% | 1005.4 hPa | 0 mm | - | - | - |
| 1778109372 | 25° C | 62% | 1004.8 hPa | 0 mm | - | - | - |
| 1778106371 | 26.11° C | 59% | 1003.4 hPa | 0 mm | - | - | - |
| 1778105168 | 27.22° C | 54% | 1003.1 hPa | 0 mm | - | - | - |
| 1778101536 | 31.11° C | 40% | 1002.6 hPa | 0 mm | - | - | - |
| 1778100371 | - | - | 1002.9 hPa | 0 mm | - | - | - |
| 1778097924 | 31.11° C | 42% | 1003.3 hPa | 0 mm | - | - | - |
| 1778095536 | 31.67° C | 40% | 1003.6 hPa | 0 mm | - | - | - |
| 1778091923 | 32.22° C | 41% | 1004.1 hPa | 0 mm | - | - | - |
| 1778091372 | - | - | 1004.3 hPa | 0 mm | - | - | - |
| 1778085923 | 30.56° C | 50% | 1006.1 hPa | 0 mm | - | - | - |
| 1778077556 | 25° C | 82% | 1009.8 hPa | 0 mm | - | - | - |
| 1778076923 | 24.44° C | 83% | 1009.9 hPa | 0 mm | - | - | - |
| 1778075759 | 24.44° C | 87% | 1010 hPa | 0 mm | - | - | - |
| 1778074535 | 23.89° C | 92% | 1010.4 hPa | 0 mm | - | - | - |
| 1778073372 | 21.67° C | 91% | 1010.6 hPa | 0 mm | - | - | - |
| 1778061372 | 19.44° C | 92% | 1010.8 hPa | 0 mm | - | - | - |
| 1778060759 | 19.44° C | 92% | 1010.8 hPa | 0 mm | - | - | - |
| 1778055923 | 18.89° C | 91% | 1011.3 hPa | 0 mm | - | - | - |
| 1778055372 | 18.89° C | 91% | 1011.6 hPa | 0 mm | - | - | - |
| 1778050535 | 19.44° C | 91% | 1012.4 hPa | 0 mm | - | - | - |
| 1778042147 | 19.44° C | 85% | 1012.9 hPa | 0 mm | - | - | - |
| 1778036759 | 21.11° C | 81% | 1013.9 hPa | 0 mm | - | - | - |
| 1778036147 | 21.11° C | 81% | 1014.2 hPa | 0 mm | - | - | - |
| 1778033780 | 21.11° C | 80% | 1014.5 hPa | 0 mm | - | - | - |
* Rain latest hour (hover to see other rain measurements)
** Current wind speed in m/s (hover to see current wind gust speed)